sensor_id;sensor_type;location;lat;lon;timestamp;pressure;altitude;pressure_sealevel;temperature;humidity
15405;BME280;7801;48.124;11.590;2023-03-22T00:00:36;95293.59;;;11.76;71.18
15405;BME280;7801;48.124;11.590;2023-03-22T00:03:03;95295.88;;;11.68;71.35
15405;BME280;7801;48.124;11.590;2023-03-22T00:05:29;95292.97;;;11.92;70.67
15405;BME280;7801;48.124;11.590;2023-03-22T00:07:55;95291.09;;;11.93;70.54
15405;BME280;7801;48.124;11.590;2023-03-22T00:10:25;95282.47;;;11.74;71.37
15405;BME280;7801;48.124;11.590;2023-03-22T00:12:51;95279.12;;;11.68;71.67
15405;BME280;7801;48.124;11.590;2023-03-22T00:15:17;95281.38;;;11.75;71.47
15405;BME280;7801;48.124;11.590;2023-03-22T00:17:42;95280.28;;;11.76;71.56
15405;BME280;7801;48.124;11.590;2023-03-22T00:20:11;95272.31;;;11.76;71.53
15405;BME280;7801;48.124;11.590;2023-03-22T00:22:39;95277.94;;;11.74;71.21
15405;BME280;7801;48.124;11.590;2023-03-22T00:25:05;95269.84;;;11.57;71.83
15405;BME280;7801;48.124;11.590;2023-03-22T00:27:31;95267.41;;;11.69;71.20
15405;BME280;7801;48.124;11.590;2023-03-22T00:29:56;95259.41;;;11.60;71.63
15405;BME280;7801;48.124;11.590;2023-03-22T00:32:22;95259.56;;;11.64;71.67
15405;BME280;7801;48.124;11.590;2023-03-22T00:34:47;95266.38;;;11.56;71.85
15405;BME280;7801;48.124;11.590;2023-03-22T00:37:12;95259.87;;;11.62;71.88
15405;BME280;7801;48.124;11.590;2023-03-22T00:39:40;95265.31;;;11.57;72.12
15405;BME280;7801;48.124;11.590;2023-03-22T00:42:05;95255.28;;;11.54;72.30
15405;BME280;7801;48.124;11.590;2023-03-22T00:44:31;95251.69;;;11.36;73.05
15405;BME280;7801;48.124;11.590;2023-03-22T00:46:57;95235.72;;;11.14;73.61
15405;BME280;7801;48.124;11.590;2023-03-22T00:49:22;95241.06;;;10.87;74.87
15405;BME280;7801;48.124;11.590;2023-03-22T00:51:49;95240.56;;;10.98;74.79
15405;BME280;7801;48.124;11.590;2023-03-22T00:54:15;95242.25;;;10.94;74.93
15405;BME280;7801;48.124;11.590;2023-03-22T00:56:41;95242.72;;;10.96;75.02
15405;BME280;7801;48.124;11.590;2023-03-22T00:59:10;95236.91;;;11.08;74.24
15405;BME280;7801;48.124;11.590;2023-03-22T01:01:36;95240.62;;;11.07;74.51
15405;BME280;7801;48.124;11.590;2023-03-22T01:04:01;95240.25;;;11.14;74.21
15405;BME280;7801;48.124;11.590;2023-03-22T01:06:27;95230.00;;;11.21;73.95
15405;BME280;7801;48.124;11.590;2023-03-22T01:08:52;95243.38;;;11.16;73.89
15405;BME280;7801;48.124;11.590;2023-03-22T01:11:19;95243.59;;;11.19;73.74
15405;BME280;7801;48.124;11.590;2023-03-22T01:13:45;95240.19;;;11.27;73.42
15405;BME280;7801;48.124;11.590;2023-03-22T01:16:12;95241.75;;;11.42;72.66
15405;BME280;7801;48.124;11.590;2023-03-22T01:18:37;95241.97;;;11.32;72.81
15405;BME280;7801;48.124;11.590;2023-03-22T01:21:03;95249.44;;;11.30;73.08
15405;BME280;7801;48.124;11.590;2023-03-22T01:23:28;95241.12;;;11.45;72.38
15405;BME280;7801;48.124;11.590;2023-03-22T01:25:54;95244.31;;;11.33;72.71
15405;BME280;7801;48.124;11.590;2023-03-22T01:28:19;95245.63;;;11.22;72.91
15405;BME280;7801;48.124;11.590;2023-03-22T01:30:45;95240.09;;;11.32;72.81
15405;BME280;7801;48.124;11.590;2023-03-22T01:33:10;95227.59;;;11.33;72.31
15405;BME280;7801;48.124;11.590;2023-03-22T01:35:35;95223.50;;;11.49;72.01
15405;BME280;7801;48.124;11.590;2023-03-22T01:38:01;95227.84;;;11.45;71.87
15405;BME280;7801;48.124;11.590;2023-03-22T01:40:26;95221.81;;;11.31;72.61
15405;BME280;7801;48.124;11.590;2023-03-22T01:42:53;95218.84;;;11.32;72.61
15405;BME280;7801;48.124;11.590;2023-03-22T01:47:51;95210.78;;;11.38;72.49
15405;BME280;7801;48.124;11.590;2023-03-22T01:50:19;95206.47;;;11.50;71.89
15405;BME280;7801;48.124;11.590;2023-03-22T01:52:47;95205.28;;;11.34;72.25
15405;BME280;7801;48.124;11.590;2023-03-22T01:55:13;95210.47;;;11.39;72.56
15405;BME280;7801;48.124;11.590;2023-03-22T01:57:42;95213.78;;;11.45;72.11
15405;BME280;7801;48.124;11.590;2023-03-22T02:00:10;95212.16;;;11.35;72.54
15405;BME280;7801;48.124;11.590;2023-03-22T02:02:40;95212.22;;;11.44;72.39
15405;BME280;7801;48.124;11.590;2023-03-22T02:05:06;95216.63;;;11.48;72.12
15405;BME280;7801;48.124;11.590;2023-03-22T02:07:31;95212.22;;;11.44;72.26
15405;BME280;7801;48.124;11.590;2023-03-22T02:09:57;95206.66;;;11.54;72.12
15405;BME280;7801;48.124;11.590;2023-03-22T02:15:25;95209.13;;;11.28;73.33
15405;BME280;7801;48.124;11.590;2023-03-22T02:18:04;95211.28;;;11.26;73.19
15405;BME280;7801;48.124;11.590;2023-03-22T02:23:36;95208.44;;;11.22;73.45
15405;BME280;7801;48.124;11.590;2023-03-22T02:29:21;95206.72;;;11.40;72.64
15405;BME280;7801;48.124;11.590;2023-03-22T02:40:16;95189.41;;;11.07;74.32
15405;BME280;7801;48.124;11.590;2023-03-22T02:43:04;95190.97;;;11.21;74.40
15405;BME280;7801;48.124;11.590;2023-03-22T02:45:51;95189.69;;;11.19;73.94
15405;BME280;7801;48.124;11.590;2023-03-22T02:48:25;95190.81;;;11.26;73.74
15405;BME280;7801;48.124;11.590;2023-03-22T02:50:54;95190.38;;;11.11;74.65
15405;BME280;7801;48.124;11.590;2023-03-22T02:53:28;95192.31;;;10.96;75.61
15405;BME280;7801;48.124;11.590;2023-03-22T02:56:12;95201.13;;;11.06;75.08
15405;BME280;7801;48.124;11.590;2023-03-22T02:58:43;95197.81;;;11.00;75.21
15405;BME280;7801;48.124;11.590;2023-03-22T03:01:24;95208.78;;;11.07;74.93
15405;BME280;7801;48.124;11.590;2023-03-22T03:03:53;95208.72;;;10.98;75.56
15405;BME280;7801;48.124;11.590;2023-03-22T03:06:21;95207.63;;;10.99;75.91
15405;BME280;7801;48.124;11.590;2023-03-22T03:08:50;95206.84;;;10.99;75.52
15405;BME280;7801;48.124;11.590;2023-03-22T03:11:18;95207.44;;;10.96;75.85
15405;BME280;7801;48.124;11.590;2023-03-22T03:13:46;95213.91;;;11.03;75.89
15405;BME280;7801;48.124;11.590;2023-03-22T03:16:13;95214.22;;;10.88;75.86
15405;BME280;7801;48.124;11.590;2023-03-22T03:18:51;95213.41;;;11.01;75.63
15405;BME280;7801;48.124;11.590;2023-03-22T03:24:35;95213.03;;;10.94;75.82
15405;BME280;7801;48.124;11.590;2023-03-22T03:27:07;95216.09;;;10.88;76.11
15405;BME280;7801;48.124;11.590;2023-03-22T03:29:40;95221.91;;;10.90;76.16
15405;BME280;7801;48.124;11.590;2023-03-22T03:32:14;95220.41;;;10.84;76.18
15405;BME280;7801;48.124;11.590;2023-03-22T03:34:48;95218.88;;;10.69;77.17
15405;BME280;7801;48.124;11.590;2023-03-22T03:37:23;95214.44;;;10.78;76.75
15405;BME280;7801;48.124;11.590;2023-03-22T03:40:01;95220.63;;;10.87;76.37
15405;BME280;7801;48.124;11.590;2023-03-22T03:42:30;95214.16;;;10.66;77.02
15405;BME280;7801;48.124;11.590;2023-03-22T03:44:57;95218.19;;;10.50;77.59
15405;BME280;7801;48.124;11.590;2023-03-22T03:47:23;95220.47;;;10.56;77.70
15405;BME280;7801;48.124;11.590;2023-03-22T03:49:49;95219.25;;;10.62;77.50
15405;BME280;7801;48.124;11.590;2023-03-22T03:52:15;95216.03;;;10.52;77.75
15405;BME280;7801;48.124;11.590;2023-03-22T03:54:40;95222.69;;;10.63;77.47
15405;BME280;7801;48.124;11.590;2023-03-22T03:57:05;95224.19;;;10.55;77.70
15405;BME280;7801;48.124;11.590;2023-03-22T03:59:30;95219.09;;;10.59;77.61
15405;BME280;7801;48.124;11.590;2023-03-22T04:01:56;95209.81;;;10.43;77.90
15405;BME280;7801;48.124;11.590;2023-03-22T04:04:26;95212.41;;;10.34;78.59
15405;BME280;7801;48.124;11.590;2023-03-22T04:06:57;95212.47;;;10.29;78.93
15405;BME280;7801;48.124;11.590;2023-03-22T04:09:24;95204.25;;;10.58;77.96
15405;BME280;7801;48.124;11.590;2023-03-22T04:11:51;95209.34;;;10.41;78.21
15405;BME280;7801;48.124;11.590;2023-03-22T04:14:17;95203.62;;;10.20;79.08
15405;BME280;7801;48.124;11.590;2023-03-22T04:16:42;95206.87;;;10.30;79.00
15405;BME280;7801;48.124;11.590;2023-03-22T04:19:07;95207.16;;;10.15;79.24
15405;BME280;7801;48.124;11.590;2023-03-22T04:21:33;95204.50;;;10.15;79.48
15405;BME280;7801;48.124;11.590;2023-03-22T04:23:58;95202.62;;;10.16;79.28
15405;BME280;7801;48.124;11.590;2023-03-22T04:26:23;95205.13;;;10.26;78.80
15405;BME280;7801;48.124;11.590;2023-03-22T04:28:48;95204.41;;;10.20;78.73
15405;BME280;7801;48.124;11.590;2023-03-22T04:31:14;95214.09;;;10.11;79.19
15405;BME280;7801;48.124;11.590;2023-03-22T04:33:39;95209.38;;;10.08;79.31
15405;BME280;7801;48.124;11.590;2023-03-22T04:36:06;95210.34;;;9.98;79.30
15405;BME280;7801;48.124;11.590;2023-03-22T04:38:34;95206.03;;;10.03;79.38
15405;BME280;7801;48.124;11.590;2023-03-22T04:41:01;95206.78;;;10.22;78.61
15405;BME280;7801;48.124;11.590;2023-03-22T04:43:26;95196.72;;;10.05;79.04
15405;BME280;7801;48.124;11.590;2023-03-22T04:45:52;95198.78;;;10.08;79.08
15405;BME280;7801;48.124;11.590;2023-03-22T04:48:18;95195.84;;;9.96;79.50
15405;BME280;7801;48.124;11.590;2023-03-22T04:50:46;95186.22;;;10.14;79.09
15405;BME280;7801;48.124;11.590;2023-03-22T04:53:11;95197.03;;;10.17;78.79
15405;BME280;7801;48.124;11.590;2023-03-22T04:55:36;95189.09;;;10.17;78.66
15405;BME280;7801;48.124;11.590;2023-03-22T04:58:02;95191.91;;;10.07;78.71
15405;BME280;7801;48.124;11.590;2023-03-22T05:00:27;95193.25;;;9.91;79.37
15405;BME280;7801;48.124;11.590;2023-03-22T05:02:54;95190.13;;;9.89;79.41
15405;BME280;7801;48.124;11.590;2023-03-22T05:05:19;95191.31;;;9.96;79.27
15405;BME280;7801;48.124;11.590;2023-03-22T05:07:45;95197.88;;;9.99;78.83
15405;BME280;7801;48.124;11.590;2023-03-22T05:10:10;95202.22;;;9.95;78.89
15405;BME280;7801;48.124;11.590;2023-03-22T05:12:35;95199.37;;;10.05;78.64
15405;BME280;7801;48.124;11.590;2023-03-22T05:15:01;95203.09;;;10.04;78.24
15405;BME280;7801;48.124;11.590;2023-03-22T05:17:28;95207.41;;;10.00;78.60
15405;BME280;7801;48.124;11.590;2023-03-22T05:19:53;95204.66;;;9.91;78.76
15405;BME280;7801;48.124;11.590;2023-03-22T05:22:19;95196.50;;;10.02;78.44
15405;BME280;7801;48.124;11.590;2023-03-22T05:24:46;95205.44;;;9.92;78.56
15405;BME280;7801;48.124;11.590;2023-03-22T05:27:12;95203.56;;;9.92;78.45
15405;BME280;7801;48.124;11.590;2023-03-22T05:29:38;95203.28;;;9.94;78.55
15405;BME280;7801;48.124;11.590;2023-03-22T05:32:09;95209.00;;;10.15;77.75
15405;BME280;7801;48.124;11.590;2023-03-22T05:34:34;95211.75;;;10.10;77.96
15405;BME280;7801;48.124;11.590;2023-03-22T05:37:01;95207.81;;;9.93;78.32
15405;BME280;7801;48.124;11.590;2023-03-22T05:39:26;95204.88;;;10.09;77.84
15405;BME280;7801;48.124;11.590;2023-03-22T05:41:52;95208.88;;;10.06;77.97
15405;BME280;7801;48.124;11.590;2023-03-22T05:44:17;95211.84;;;10.05;78.10
15405;BME280;7801;48.124;11.590;2023-03-22T05:46:42;95208.47;;;9.99;78.08
15405;BME280;7801;48.124;11.590;2023-03-22T05:49:08;95209.22;;;10.18;77.64
15405;BME280;7801;48.124;11.590;2023-03-22T05:51:33;95212.13;;;10.03;78.14
15405;BME280;7801;48.124;11.590;2023-03-22T05:54:05;95209.31;;;10.13;78.03
15405;BME280;7801;48.124;11.590;2023-03-22T05:56:31;95217.25;;;10.13;77.73
15405;BME280;7801;48.124;11.590;2023-03-22T05:58:57;95216.97;;;10.15;77.67
15405;BME280;7801;48.124;11.590;2023-03-22T06:01:22;95215.88;;;10.16;77.59
15405;BME280;7801;48.124;11.590;2023-03-22T06:03:49;95211.88;;;10.18;77.80
15405;BME280;7801;48.124;11.590;2023-03-22T06:06:15;95216.47;;;10.13;78.53
15405;BME280;7801;48.124;11.590;2023-03-22T06:08:40;95208.31;;;10.09;78.37
15405;BME280;7801;48.124;11.590;2023-03-22T06:11:06;95215.09;;;10.15;78.09
15405;BME280;7801;48.124;11.590;2023-03-22T06:13:32;95211.00;;;10.23;77.81
15405;BME280;7801;48.124;11.590;2023-03-22T06:15:58;95210.78;;;10.19;77.83
15405;BME280;7801;48.124;11.590;2023-03-22T06:18:24;95206.41;;;10.28;77.67
15405;BME280;7801;48.124;11.590;2023-03-22T06:20:49;95213.66;;;10.23;77.62
15405;BME280;7801;48.124;11.590;2023-03-22T06:23:15;95207.69;;;10.31;77.56
15405;BME280;7801;48.124;11.590;2023-03-22T06:25:40;95220.44;;;10.43;77.20
15405;BME280;7801;48.124;11.590;2023-03-22T06:28:05;95212.41;;;10.34;77.32
15405;BME280;7801;48.124;11.590;2023-03-22T06:30:31;95211.81;;;10.37;77.00
15405;BME280;7801;48.124;11.590;2023-03-22T06:32:56;95216.81;;;10.39;77.35
15405;BME280;7801;48.124;11.590;2023-03-22T06:35:25;95212.09;;;10.36;77.38
15405;BME280;7801;48.124;11.590;2023-03-22T06:37:50;95206.87;;;10.30;77.38
15405;BME280;7801;48.124;11.590;2023-03-22T06:40:16;95217.50;;;10.58;76.55
15405;BME280;7801;48.124;11.590;2023-03-22T06:42:41;95212.50;;;11.20;88.02
15405;BME280;7801;48.124;11.590;2023-03-22T06:45:07;95212.00;;;11.98;90.50
15405;BME280;7801;48.124;11.590;2023-03-22T06:47:32;95203.94;;;12.52;87.52
15405;BME280;7801;48.124;11.590;2023-03-22T06:49:58;95207.22;;;13.05;85.06
15405;BME280;7801;48.124;11.590;2023-03-22T06:52:23;95206.63;;;13.52;82.45
15405;BME280;7801;48.124;11.590;2023-03-22T06:54:49;95208.03;;;13.58;73.97
15405;BME280;7801;48.124;11.590;2023-03-22T06:57:14;95205.13;;;14.15;74.11
15405;BME280;7801;48.124;11.590;2023-03-22T06:59:40;95208.34;;;14.55;73.50
15405;BME280;7801;48.124;11.590;2023-03-22T07:02:05;95215.22;;;14.56;67.05
15405;BME280;7801;48.124;11.590;2023-03-22T07:04:31;95211.91;;;14.12;60.00
15405;BME280;7801;48.124;11.590;2023-03-22T07:06:57;95216.22;;;13.44;61.89
15405;BME280;7801;48.124;11.590;2023-03-22T07:09:22;95216.28;;;12.87;63.61
15405;BME280;7801;48.124;11.590;2023-03-22T07:11:51;95220.19;;;12.42;65.29
15405;BME280;7801;48.124;11.590;2023-03-22T07:14:17;95217.59;;;12.19;66.43
15405;BME280;7801;48.124;11.590;2023-03-22T07:16:42;95219.41;;;12.10;66.94
15405;BME280;7801;48.124;11.590;2023-03-22T07:19:07;95218.19;;;11.71;68.33
15405;BME280;7801;48.124;11.590;2023-03-22T07:21:33;95219.53;;;11.60;69.22
15405;BME280;7801;48.124;11.590;2023-03-22T07:23:58;95220.63;;;11.59;69.57
15405;BME280;7801;48.124;11.590;2023-03-22T07:26:24;95213.16;;;11.61;69.90
15405;BME280;7801;48.124;11.590;2023-03-22T07:28:50;95220.97;;;11.66;70.47
15405;BME280;7801;48.124;11.590;2023-03-22T07:31:16;95220.78;;;11.77;70.09
15405;BME280;7801;48.124;11.590;2023-03-22T07:33:41;95219.38;;;11.79;70.10
15405;BME280;7801;48.124;11.590;2023-03-22T07:36:07;95224.69;;;11.79;69.76
15405;BME280;7801;48.124;11.590;2023-03-22T07:38:34;95230.50;;;11.81;68.77
15405;BME280;7801;48.124;11.590;2023-03-22T07:40:59;95225.16;;;12.03;68.46
15405;BME280;7801;48.124;11.590;2023-03-22T07:43:25;95215.78;;;12.06;68.20
15405;BME280;7801;48.124;11.590;2023-03-22T07:45:51;95218.91;;;12.08;68.54
15405;BME280;7801;48.124;11.590;2023-03-22T07:48:21;95230.91;;;11.97;69.07
15405;BME280;7801;48.124;11.590;2023-03-22T07:50:46;95221.16;;;12.15;68.29
15405;BME280;7801;48.124;11.590;2023-03-22T07:53:12;95226.16;;;12.16;68.00
15405;BME280;7801;48.124;11.590;2023-03-22T07:55:37;95226.22;;;12.25;67.32
15405;BME280;7801;48.124;11.590;2023-03-22T07:58:03;95217.78;;;12.31;67.06
15405;BME280;7801;48.124;11.590;2023-03-22T08:00:30;95226.34;;;12.20;67.24
15405;BME280;7801;48.124;11.590;2023-03-22T08:02:55;95224.78;;;12.19;67.02
15405;BME280;7801;48.124;11.590;2023-03-22T08:05:20;95226.41;;;12.37;66.80
15405;BME280;7801;48.124;11.590;2023-03-22T08:07:47;95217.69;;;12.45;66.78
15405;BME280;7801;48.124;11.590;2023-03-22T08:10:12;95225.41;;;12.55;65.77
15405;BME280;7801;48.124;11.590;2023-03-22T08:12:38;95228.06;;;12.55;66.04
15405;BME280;7801;48.124;11.590;2023-03-22T08:15:04;95224.19;;;12.61;66.04
15405;BME280;7801;48.124;11.590;2023-03-22T08:17:29;95224.47;;;12.60;66.47
15405;BME280;7801;48.124;11.590;2023-03-22T08:19:55;95220.91;;;12.73;66.29
15405;BME280;7801;48.124;11.590;2023-03-22T08:22:20;95231.91;;;12.80;65.98
15405;BME280;7801;48.124;11.590;2023-03-22T08:24:50;95214.69;;;12.86;66.57
15405;BME280;7801;48.124;11.590;2023-03-22T08:27:16;95216.41;;;12.91;66.02
15405;BME280;7801;48.124;11.590;2023-03-22T08:29:43;95224.13;;;13.09;65.52
15405;BME280;7801;48.124;11.590;2023-03-22T08:32:08;95221.16;;;13.11;65.49
15405;BME280;7801;48.124;11.590;2023-03-22T08:34:38;95217.88;;;13.05;66.02
15405;BME280;7801;48.124;11.590;2023-03-22T08:37:05;95222.78;;;13.21;65.70
15405;BME280;7801;48.124;11.590;2023-03-22T08:39:31;95216.34;;;13.22;65.50
15405;BME280;7801;48.124;11.590;2023-03-22T08:41:57;95222.16;;;13.24;66.95
15405;BME280;7801;48.124;11.590;2023-03-22T08:44:22;95226.56;;;13.28;65.84
15405;BME280;7801;48.124;11.590;2023-03-22T08:46:48;95218.09;;;13.44;65.50
15405;BME280;7801;48.124;11.590;2023-03-22T08:49:13;95218.22;;;13.56;64.62
15405;BME280;7801;48.124;11.590;2023-03-22T08:51:39;95214.31;;;13.62;64.80
15405;BME280;7801;48.124;11.590;2023-03-22T08:54:04;95202.72;;;13.66;64.00
15405;BME280;7801;48.124;11.590;2023-03-22T08:56:30;95205.34;;;13.84;63.76
15405;BME280;7801;48.124;11.590;2023-03-22T08:58:56;95204.88;;;13.90;63.78
15405;BME280;7801;48.124;11.590;2023-03-22T09:01:21;95199.56;;;13.90;62.27
15405;BME280;7801;48.124;11.590;2023-03-22T09:03:47;95203.12;;;14.03;64.14
15405;BME280;7801;48.124;11.590;2023-03-22T09:06:13;95207.66;;;14.11;62.27
15405;BME280;7801;48.124;11.590;2023-03-22T09:08:39;95202.31;;;14.11;62.62
15405;BME280;7801;48.124;11.590;2023-03-22T09:11:08;95193.66;;;14.14;62.20
15405;BME280;7801;48.124;11.590;2023-03-22T09:13:33;95200.97;;;14.34;61.45
15405;BME280;7801;48.124;11.590;2023-03-22T09:15:59;95207.87;;;14.44;61.00
15405;BME280;7801;48.124;11.590;2023-03-22T09:18:24;95206.75;;;14.54;60.14
15405;BME280;7801;48.124;11.590;2023-03-22T09:20:50;95201.44;;;14.36;60.71
15405;BME280;7801;48.124;11.590;2023-03-22T09:23:16;95198.41;;;14.55;60.17
15405;BME280;7801;48.124;11.590;2023-03-22T09:25:42;95191.78;;;14.61;59.18
15405;BME280;7801;48.124;11.590;2023-03-22T09:28:08;95186.91;;;14.63;59.86
15405;BME280;7801;48.124;11.590;2023-03-22T09:30:34;95189.22;;;14.73;60.15
15405;BME280;7801;48.124;11.590;2023-03-22T09:33:00;95190.19;;;14.69;59.82
15405;BME280;7801;48.124;11.590;2023-03-22T09:35:25;95181.78;;;14.79;58.97
15405;BME280;7801;48.124;11.590;2023-03-22T09:37:51;95180.97;;;14.87;59.04
15405;BME280;7801;48.124;11.590;2023-03-22T09:40:19;95183.37;;;14.80;58.43
15405;BME280;7801;48.124;11.590;2023-03-22T09:42:47;95174.81;;;14.95;58.30
15405;BME280;7801;48.124;11.590;2023-03-22T09:45:18;95175.69;;;14.99;56.33
15405;BME280;7801;48.124;11.590;2023-03-22T09:47:48;95174.75;;;15.04;55.46
15405;BME280;7801;48.124;11.590;2023-03-22T09:50:20;95168.25;;;15.13;55.31
15405;BME280;7801;48.124;11.590;2023-03-22T09:52:47;95169.59;;;15.20;55.91
15405;BME280;7801;48.124;11.590;2023-03-22T09:55:46;95167.50;;;15.25;56.07
15405;BME280;7801;48.124;11.590;2023-03-22T09:58:29;95167.50;;;15.25;56.30
15405;BME280;7801;48.124;11.590;2023-03-22T10:01:18;95155.25;;;15.24;55.41
15405;BME280;7801;48.124;11.590;2023-03-22T10:07:24;95164.50;;;15.27;54.31
15405;BME280;7801;48.124;11.590;2023-03-22T10:10:11;95152.72;;;15.28;55.68
15405;BME280;7801;48.124;11.590;2023-03-22T10:15:15;95147.75;;;15.59;55.00
15405;BME280;7801;48.124;11.590;2023-03-22T10:17:45;95141.97;;;15.57;53.30
15405;BME280;7801;48.124;11.590;2023-03-22T10:23:08;95136.53;;;15.66;54.09
15405;BME280;7801;48.124;11.590;2023-03-22T10:25:38;95125.91;;;15.57;54.33
15405;BME280;7801;48.124;11.590;2023-03-22T10:30:41;95132.22;;;15.86;53.00
15405;BME280;7801;48.124;11.590;2023-03-22T10:33:20;95128.88;;;15.76;53.33
15405;BME280;7801;48.124;11.590;2023-03-22T10:35:50;95123.75;;;15.84;52.50
15405;BME280;7801;48.124;11.590;2023-03-22T10:38:26;95119.56;;;15.95;52.28
15405;BME280;7801;48.124;11.590;2023-03-22T10:40:54;95117.53;;;15.92;51.91
15405;BME280;7801;48.124;11.590;2023-03-22T10:43:35;95121.91;;;15.96;51.25
15405;BME280;7801;48.124;11.590;2023-03-22T10:46:04;95117.66;;;16.07;51.10
15405;BME280;7801;48.124;11.590;2023-03-22T10:48:44;95110.28;;;15.92;52.07
15405;BME280;7801;48.124;11.590;2023-03-22T10:51:19;95119.75;;;16.02;51.89
15405;BME280;7801;48.124;11.590;2023-03-22T10:53:47;95115.44;;;15.97;50.92
15405;BME280;7801;48.124;11.590;2023-03-22T10:56:16;95122.91;;;16.04;50.77
15405;BME280;7801;48.124;11.590;2023-03-22T10:58:44;95112.19;;;16.04;50.51
15405;BME280;7801;48.124;11.590;2023-03-22T11:01:12;95111.22;;;16.21;49.06
15405;BME280;7801;48.124;11.590;2023-03-22T11:06:22;95102.94;;;16.26;49.31
15405;BME280;7801;48.124;11.590;2023-03-22T11:08:52;95107.66;;;16.41;46.02
15405;BME280;7801;48.124;11.590;2023-03-22T11:11:33;95108.19;;;16.46;45.98
15405;BME280;7801;48.124;11.590;2023-03-22T11:14:04;95116.03;;;16.39;47.44
15405;BME280;7801;48.124;11.590;2023-03-22T11:16:31;95111.12;;;16.41;47.03
15405;BME280;7801;48.124;11.590;2023-03-22T11:19:04;95108.09;;;16.43;45.87
15405;BME280;7801;48.124;11.590;2023-03-22T11:21:32;95110.66;;;16.52;45.09
15405;BME280;7801;48.124;11.590;2023-03-22T11:24:06;95108.53;;;16.57;48.15
15405;BME280;7801;48.124;11.590;2023-03-22T11:26:35;95105.88;;;16.57;45.32
15405;BME280;7801;48.124;11.590;2023-03-22T11:29:25;95094.16;;;16.62;45.19
15405;BME280;7801;48.124;11.590;2023-03-22T11:31:59;95105.66;;;16.62;45.22
15405;BME280;7801;48.124;11.590;2023-03-22T11:34:29;95105.88;;;16.69;45.61
15405;BME280;7801;48.124;11.590;2023-03-22T11:36:59;95101.28;;;16.58;46.26
15405;BME280;7801;48.124;11.590;2023-03-22T11:39:26;95102.41;;;16.69;46.45
15405;BME280;7801;48.124;11.590;2023-03-22T11:41:57;95088.34;;;16.60;48.28
15405;BME280;7801;48.124;11.590;2023-03-22T11:44:26;95090.91;;;16.56;46.00
15405;BME280;7801;48.124;11.590;2023-03-22T11:46:55;95084.78;;;16.56;45.72
15405;BME280;7801;48.124;11.590;2023-03-22T11:49:24;95082.88;;;16.68;45.42
15405;BME280;7801;48.124;11.590;2023-03-22T11:51:52;95085.09;;;16.66;46.74
15405;BME280;7801;48.124;11.590;2023-03-22T11:54:26;95075.72;;;16.60;47.62
15405;BME280;7801;48.124;11.590;2023-03-22T11:56:56;95075.28;;;16.70;44.83
15405;BME280;7801;48.124;11.590;2023-03-22T11:59:28;95069.03;;;16.78;46.00
15405;BME280;7801;48.124;11.590;2023-03-22T12:04:30;95076.25;;;16.90;44.52
15405;BME280;7801;48.124;11.590;2023-03-22T12:06:59;95062.84;;;16.90;44.30
15405;BME280;7801;48.124;11.590;2023-03-22T12:09:43;95057.47;;;16.90;44.68
15405;BME280;7801;48.124;11.590;2023-03-22T12:12:16;95063.53;;;16.87;46.27
15405;BME280;7801;48.124;11.590;2023-03-22T12:14:50;95060.31;;;16.81;45.37
15405;BME280;7801;48.124;11.590;2023-03-22T12:17:27;95053.59;;;16.88;45.09
15405;BME280;7801;48.124;11.590;2023-03-22T12:20:31;95046.75;;;16.90;46.06
15405;BME280;7801;48.124;11.590;2023-03-22T12:23:00;95034.25;;;16.94;44.94
15405;BME280;7801;48.124;11.590;2023-03-22T12:25:30;95035.38;;;16.93;46.15
15405;BME280;7801;48.124;11.590;2023-03-22T12:27:58;95037.81;;;16.98;44.75
15405;BME280;7801;48.124;11.590;2023-03-22T12:30:29;95031.56;;;16.94;46.78
15405;BME280;7801;48.124;11.590;2023-03-22T12:32:57;95034.34;;;16.98;49.18
15405;BME280;7801;48.124;11.590;2023-03-22T12:35:28;95027.56;;;16.88;46.52
15405;BME280;7801;48.124;11.590;2023-03-22T12:37:57;95028.34;;;16.89;48.63
15405;BME280;7801;48.124;11.590;2023-03-22T12:40:33;95024.75;;;16.97;46.19
15405;BME280;7801;48.124;11.590;2023-03-22T12:45:53;95013.88;;;16.77;46.27
15405;BME280;7801;48.124;11.590;2023-03-22T12:48:31;95003.72;;;16.83;46.06
15405;BME280;7801;48.124;11.590;2023-03-22T12:51:05;95001.56;;;16.89;46.88
15405;BME280;7801;48.124;11.590;2023-03-22T12:53:36;94997.97;;;16.84;45.42
15405;BME280;7801;48.124;11.590;2023-03-22T12:56:11;94989.28;;;16.88;45.38
15405;BME280;7801;48.124;11.590;2023-03-22T12:58:39;94985.47;;;16.89;46.17
15405;BME280;7801;48.124;11.590;2023-03-22T13:01:09;94980.84;;;17.01;44.03
15405;BME280;7801;48.124;11.590;2023-03-22T13:03:46;94983.53;;;17.01;44.90
15405;BME280;7801;48.124;11.590;2023-03-22T13:11:39;94972.31;;;17.11;44.18
15405;BME280;7801;48.124;11.590;2023-03-22T13:14:05;94970.56;;;17.03;44.03
15405;BME280;7801;48.124;11.590;2023-03-22T13:16:50;94968.75;;;17.07;43.26
15405;BME280;7801;48.124;11.590;2023-03-22T13:19:27;94971.44;;;17.07;43.25
15405;BME280;7801;48.124;11.590;2023-03-22T13:22:20;94967.72;;;17.12;42.10
15405;BME280;7801;48.124;11.590;2023-03-22T13:30:35;94958.41;;;17.22;43.78
15405;BME280;7801;48.124;11.590;2023-03-22T13:33:19;94966.25;;;17.14;43.31
15405;BME280;7801;48.124;11.590;2023-03-22T13:35:50;94955.28;;;17.20;43.02
15405;BME280;7801;48.124;11.590;2023-03-22T13:43:49;94963.09;;;17.25;42.80
15405;BME280;7801;48.124;11.590;2023-03-22T13:54:01;94954.44;;;17.94;62.87
15405;BME280;7801;48.124;11.590;2023-03-22T14:01:45;94955.69;;;18.51;52.94
15405;BME280;7801;48.124;11.590;2023-03-22T14:04:15;94948.34;;;18.29;42.20
15405;BME280;7801;48.124;11.590;2023-03-22T14:07:21;94949.47;;;18.12;40.26
15405;BME280;7801;48.124;11.590;2023-03-22T14:09:53;94944.31;;;17.87;41.41
15405;BME280;7801;48.124;11.590;2023-03-22T14:12:47;94950.22;;;17.77;41.55
15405;BME280;7801;48.124;11.590;2023-03-22T14:15:17;94945.00;;;17.53;42.25
15405;BME280;7801;48.124;11.590;2023-03-22T14:17:58;94939.75;;;17.41;41.89
15405;BME280;7801;48.124;11.590;2023-03-22T14:20:28;94937.75;;;17.38;43.85